sensor_id;sensor_type;location;lat;lon;timestamp;P1;durP1;ratioP1;P2;durP2;ratioP2
572;SDS011;271;51.114;13.780;2023-04-03T00:01:24;16.27;;;1.30;;
572;SDS011;271;51.114;13.780;2023-04-03T00:04:11;18.30;;;1.73;;
572;SDS011;271;51.114;13.780;2023-04-03T00:06:59;18.23;;;2.65;;
572;SDS011;271;51.114;13.780;2023-04-03T00:09:48;22.08;;;1.70;;
572;SDS011;271;51.114;13.780;2023-04-03T00:12:36;19.00;;;2.20;;
572;SDS011;271;51.114;13.780;2023-04-03T00:15:24;17.70;;;1.50;;
572;SDS011;271;51.114;13.780;2023-04-03T00:18:11;17.85;;;1.90;;
572;SDS011;271;51.114;13.780;2023-04-03T00:20:59;18.52;;;1.80;;
572;SDS011;271;51.114;13.780;2023-04-03T00:23:47;17.17;;;1.80;;
572;SDS011;271;51.114;13.780;2023-04-03T00:26:36;16.17;;;1.60;;
572;SDS011;271;51.114;13.780;2023-04-03T00:29:24;17.90;;;2.05;;
572;SDS011;271;51.114;13.780;2023-04-03T00:32:11;18.52;;;1.80;;
572;SDS011;271;51.114;13.780;2023-04-03T00:34:59;17.15;;;1.92;;
572;SDS011;271;51.114;13.780;2023-04-03T00:37:47;19.20;;;1.88;;
572;SDS011;271;51.114;13.780;2023-04-03T00:40:38;17.45;;;1.55;;
572;SDS011;271;51.114;13.780;2023-04-03T00:43:30;16.60;;;1.60;;
572;SDS011;271;51.114;13.780;2023-04-03T00:46:18;17.90;;;1.90;;
572;SDS011;271;51.114;13.780;2023-04-03T00:49:06;17.40;;;1.30;;
572;SDS011;271;51.114;13.780;2023-04-03T00:51:53;15.88;;;1.17;;
572;SDS011;271;51.114;13.780;2023-04-03T00:54:42;18.00;;;1.85;;
572;SDS011;271;51.114;13.780;2023-04-03T00:57:33;16.77;;;1.67;;
572;SDS011;271;51.114;13.780;2023-04-03T01:00:22;16.50;;;1.42;;
572;SDS011;271;51.114;13.780;2023-04-03T01:03:11;18.63;;;1.80;;
572;SDS011;271;51.114;13.780;2023-04-03T01:05:58;19.90;;;1.83;;
572;SDS011;271;51.114;13.780;2023-04-03T01:08:47;17.60;;;1.65;;
572;SDS011;271;51.114;13.780;2023-04-03T01:11:36;17.20;;;1.67;;
572;SDS011;271;51.114;13.780;2023-04-03T01:14:24;16.70;;;1.63;;
572;SDS011;271;51.114;13.780;2023-04-03T01:17:26;17.40;;;1.58;;
572;SDS011;271;51.114;13.780;2023-04-03T01:23:37;17.02;;;1.60;;
572;SDS011;271;51.114;13.780;2023-04-03T01:26:40;16.50;;;1.75;;
572;SDS011;271;51.114;13.780;2023-04-03T01:29:28;18.90;;;2.10;;
572;SDS011;271;51.114;13.780;2023-04-03T01:32:17;18.33;;;1.60;;
572;SDS011;271;51.114;13.780;2023-04-03T01:35:06;17.85;;;1.95;;
572;SDS011;271;51.114;13.780;2023-04-03T01:37:55;17.40;;;1.75;;
572;SDS011;271;51.114;13.780;2023-04-03T01:40:43;17.20;;;1.85;;
572;SDS011;271;51.114;13.780;2023-04-03T01:43:30;16.45;;;1.80;;
572;SDS011;271;51.114;13.780;2023-04-03T01:46:18;17.05;;;1.70;;
572;SDS011;271;51.114;13.780;2023-04-03T01:49:08;21.67;;;1.75;;
572;SDS011;271;51.114;13.780;2023-04-03T01:51:55;16.02;;;1.42;;
572;SDS011;271;51.114;13.780;2023-04-03T01:54:43;20.25;;;2.20;;
572;SDS011;271;51.114;13.780;2023-04-03T01:57:31;17.00;;;1.80;;
572;SDS011;271;51.114;13.780;2023-04-03T02:00:19;17.30;;;1.80;;
572;SDS011;271;51.114;13.780;2023-04-03T02:03:07;17.60;;;1.58;;
572;SDS011;271;51.114;13.780;2023-04-03T02:05:56;17.00;;;1.60;;
572;SDS011;271;51.114;13.780;2023-04-03T02:08:43;17.40;;;2.03;;
572;SDS011;271;51.114;13.780;2023-04-03T02:11:31;18.48;;;2.08;;
572;SDS011;271;51.114;13.780;2023-04-03T02:14:19;16.20;;;2.47;;
572;SDS011;271;51.114;13.780;2023-04-03T02:17:07;16.60;;;1.60;;
572;SDS011;271;51.114;13.780;2023-04-03T02:19:55;18.42;;;1.95;;
572;SDS011;271;51.114;13.780;2023-04-03T02:22:44;16.33;;;1.70;;
572;SDS011;271;51.114;13.780;2023-04-03T02:25:32;16.60;;;1.55;;
572;SDS011;271;51.114;13.780;2023-04-03T02:28:20;16.77;;;2.10;;
572;SDS011;271;51.114;13.780;2023-04-03T02:31:08;16.42;;;1.75;;
572;SDS011;271;51.114;13.780;2023-04-03T02:33:56;18.77;;;1.85;;
572;SDS011;271;51.114;13.780;2023-04-03T02:36:44;17.00;;;1.92;;
572;SDS011;271;51.114;13.780;2023-04-03T02:39:33;18.38;;;1.83;;
572;SDS011;271;51.114;13.780;2023-04-03T02:42:21;17.77;;;2.40;;
572;SDS011;271;51.114;13.780;2023-04-03T02:45:09;16.75;;;2.20;;
572;SDS011;271;51.114;13.780;2023-04-03T02:47:57;16.67;;;1.30;;
572;SDS011;271;51.114;13.780;2023-04-03T02:50:44;17.25;;;1.67;;
572;SDS011;271;51.114;13.780;2023-04-03T02:53:32;16.90;;;1.63;;
572;SDS011;271;51.114;13.780;2023-04-03T02:56:21;16.90;;;2.10;;
572;SDS011;271;51.114;13.780;2023-04-03T02:59:09;16.50;;;1.45;;
572;SDS011;271;51.114;13.780;2023-04-03T03:01:57;17.30;;;1.75;;
572;SDS011;271;51.114;13.780;2023-04-03T03:04:44;17.52;;;1.75;;
572;SDS011;271;51.114;13.780;2023-04-03T03:07:32;20.75;;;1.80;;
572;SDS011;271;51.114;13.780;2023-04-03T03:10:20;18.23;;;2.25;;
572;SDS011;271;51.114;13.780;2023-04-03T03:13:09;21.48;;;1.95;;
572;SDS011;271;51.114;13.780;2023-04-03T03:15:57;16.48;;;2.28;;
572;SDS011;271;51.114;13.780;2023-04-03T03:18:45;16.85;;;1.50;;
572;SDS011;271;51.114;13.780;2023-04-03T03:21:33;16.30;;;2.22;;
572;SDS011;271;51.114;13.780;2023-04-03T03:24:20;16.95;;;1.60;;
572;SDS011;271;51.114;13.780;2023-04-03T03:27:08;16.50;;;1.65;;
572;SDS011;271;51.114;13.780;2023-04-03T03:29:57;18.33;;;1.80;;
572;SDS011;271;51.114;13.780;2023-04-03T03:32:45;16.83;;;1.40;;
572;SDS011;271;51.114;13.780;2023-04-03T03:35:33;16.70;;;1.40;;
572;SDS011;271;51.114;13.780;2023-04-03T03:38:21;17.92;;;1.90;;
572;SDS011;271;51.114;13.780;2023-04-03T03:41:09;17.70;;;1.42;;
572;SDS011;271;51.114;13.780;2023-04-03T03:43:57;16.30;;;1.33;;
572;SDS011;271;51.114;13.780;2023-04-03T03:46:46;16.88;;;2.10;;
572;SDS011;271;51.114;13.780;2023-04-03T03:49:34;17.00;;;2.00;;
572;SDS011;271;51.114;13.780;2023-04-03T03:52:21;18.00;;;3.28;;
572;SDS011;271;51.114;13.780;2023-04-03T03:55:09;19.65;;;2.83;;
572;SDS011;271;51.114;13.780;2023-04-03T03:57:57;18.58;;;3.03;;
572;SDS011;271;51.114;13.780;2023-04-03T04:00:45;19.77;;;2.72;;
572;SDS011;271;51.114;13.780;2023-04-03T04:03:35;20.02;;;3.20;;
572;SDS011;271;51.114;13.780;2023-04-03T04:06:22;20.08;;;3.28;;
572;SDS011;271;51.114;13.780;2023-04-03T04:09:11;19.83;;;3.10;;
572;SDS011;271;51.114;13.780;2023-04-03T04:11:59;20.70;;;3.35;;
572;SDS011;271;51.114;13.780;2023-04-03T04:14:47;22.40;;;3.38;;
572;SDS011;271;51.114;13.780;2023-04-03T04:17:35;18.77;;;2.45;;
572;SDS011;271;51.114;13.780;2023-04-03T04:20:24;19.95;;;3.05;;
572;SDS011;271;51.114;13.780;2023-04-03T04:23:12;18.83;;;2.33;;
572;SDS011;271;51.114;13.780;2023-04-03T04:25:59;19.33;;;2.17;;
572;SDS011;271;51.114;13.780;2023-04-03T04:28:47;16.70;;;1.75;;
572;SDS011;271;51.114;13.780;2023-04-03T04:31:35;17.42;;;1.85;;
572;SDS011;271;51.114;13.780;2023-04-03T04:34:23;20.98;;;1.92;;
572;SDS011;271;51.114;13.780;2023-04-03T04:37:12;19.95;;;2.28;;
572;SDS011;271;51.114;13.780;2023-04-03T04:39:59;17.20;;;2.00;;
572;SDS011;271;51.114;13.780;2023-04-03T04:42:47;17.75;;;1.90;;
572;SDS011;271;51.114;13.780;2023-04-03T04:45:35;21.08;;;2.17;;
572;SDS011;271;51.114;13.780;2023-04-03T04:48:23;17.00;;;2.10;;
572;SDS011;271;51.114;13.780;2023-04-03T04:51:11;17.60;;;2.10;;
572;SDS011;271;51.114;13.780;2023-04-03T04:54:01;19.65;;;4.07;;
572;SDS011;271;51.114;13.780;2023-04-03T04:56:48;18.65;;;2.60;;
572;SDS011;271;51.114;13.780;2023-04-03T04:59:36;18.25;;;2.20;;
572;SDS011;271;51.114;13.780;2023-04-03T05:02:24;18.77;;;2.33;;
572;SDS011;271;51.114;13.780;2023-04-03T05:05:11;16.83;;;1.60;;
572;SDS011;271;51.114;13.780;2023-04-03T05:07:59;20.33;;;2.03;;
572;SDS011;271;51.114;13.780;2023-04-03T05:10:48;17.10;;;2.00;;
572;SDS011;271;51.114;13.780;2023-04-03T05:13:36;20.23;;;2.08;;
572;SDS011;271;51.114;13.780;2023-04-03T05:16:23;18.48;;;2.17;;
572;SDS011;271;51.114;13.780;2023-04-03T05:19:11;17.58;;;1.88;;
572;SDS011;271;51.114;13.780;2023-04-03T05:22:00;17.73;;;2.10;;
572;SDS011;271;51.114;13.780;2023-04-03T05:24:48;19.48;;;2.78;;
572;SDS011;271;51.114;13.780;2023-04-03T05:27:37;18.95;;;1.98;;
572;SDS011;271;51.114;13.780;2023-04-03T05:30:25;18.63;;;2.20;;
572;SDS011;271;51.114;13.780;2023-04-03T05:33:12;18.35;;;2.05;;
572;SDS011;271;51.114;13.780;2023-04-03T05:36:01;18.58;;;2.35;;
572;SDS011;271;51.114;13.780;2023-04-03T05:38:50;21.17;;;3.03;;
572;SDS011;271;51.114;13.780;2023-04-03T05:41:39;22.27;;;2.90;;
572;SDS011;271;51.114;13.780;2023-04-03T05:44:28;21.10;;;2.83;;
572;SDS011;271;51.114;13.780;2023-04-03T05:47:16;20.63;;;3.47;;
572;SDS011;271;51.114;13.780;2023-04-03T05:50:04;21.92;;;2.72;;
572;SDS011;271;51.114;13.780;2023-04-03T05:52:52;17.10;;;1.83;;
572;SDS011;271;51.114;13.780;2023-04-03T05:55:44;22.20;;;3.03;;
572;SDS011;271;51.114;13.780;2023-04-03T05:58:32;19.15;;;2.55;;
572;SDS011;271;51.114;13.780;2023-04-03T06:01:21;16.90;;;1.90;;
572;SDS011;271;51.114;13.780;2023-04-03T06:04:09;17.60;;;2.00;;
572;SDS011;271;51.114;13.780;2023-04-03T06:06:58;18.80;;;2.63;;
572;SDS011;271;51.114;13.780;2023-04-03T06:09:46;18.58;;;2.20;;
572;SDS011;271;51.114;13.780;2023-04-03T06:12:34;20.88;;;2.70;;
572;SDS011;271;51.114;13.780;2023-04-03T06:15:22;18.02;;;1.60;;
572;SDS011;271;51.114;13.780;2023-04-03T06:18:18;27.92;;;2.67;;
572;SDS011;271;51.114;13.780;2023-04-03T06:21:06;17.33;;;1.85;;
572;SDS011;271;51.114;13.780;2023-04-03T06:23:54;17.40;;;1.73;;
572;SDS011;271;51.114;13.780;2023-04-03T06:26:45;17.40;;;2.55;;
572;SDS011;271;51.114;13.780;2023-04-03T06:29:33;20.35;;;2.10;;
572;SDS011;271;51.114;13.780;2023-04-03T06:32:22;19.70;;;2.53;;
572;SDS011;271;51.114;13.780;2023-04-03T06:35:12;18.38;;;2.85;;
572;SDS011;271;51.114;13.780;2023-04-03T06:38:00;18.45;;;2.28;;
572;SDS011;271;51.114;13.780;2023-04-03T06:40:49;18.98;;;2.05;;
572;SDS011;271;51.114;13.780;2023-04-03T06:43:37;17.95;;;2.40;;
572;SDS011;271;51.114;13.780;2023-04-03T06:46:26;17.70;;;2.20;;
572;SDS011;271;51.114;13.780;2023-04-03T06:49:13;17.33;;;1.90;;
572;SDS011;271;51.114;13.780;2023-04-03T06:52:03;21.58;;;2.40;;
572;SDS011;271;51.114;13.780;2023-04-03T06:54:51;18.50;;;1.92;;
572;SDS011;271;51.114;13.780;2023-04-03T06:57:42;18.27;;;2.05;;
572;SDS011;271;51.114;13.780;2023-04-03T07:00:31;17.05;;;2.00;;
572;SDS011;271;51.114;13.780;2023-04-03T07:03:19;18.92;;;2.10;;
572;SDS011;271;51.114;13.780;2023-04-03T07:06:07;17.63;;;2.20;;
572;SDS011;271;51.114;13.780;2023-04-03T07:08:59;17.98;;;1.98;;
572;SDS011;271;51.114;13.780;2023-04-03T07:11:48;20.25;;;2.55;;
572;SDS011;271;51.114;13.780;2023-04-03T07:14:36;18.17;;;2.25;;
572;SDS011;271;51.114;13.780;2023-04-03T07:17:24;17.70;;;1.90;;
572;SDS011;271;51.114;13.780;2023-04-03T07:20:12;16.60;;;2.00;;
572;SDS011;271;51.114;13.780;2023-04-03T07:23:01;17.85;;;2.10;;
572;SDS011;271;51.114;13.780;2023-04-03T07:25:50;17.67;;;2.10;;
572;SDS011;271;51.114;13.780;2023-04-03T07:28:38;21.73;;;2.10;;
572;SDS011;271;51.114;13.780;2023-04-03T07:31:27;18.55;;;2.13;;
572;SDS011;271;51.114;13.780;2023-04-03T07:34:15;18.67;;;2.38;;
572;SDS011;271;51.114;13.780;2023-04-03T07:37:02;18.88;;;2.15;;
572;SDS011;271;51.114;13.780;2023-04-03T07:39:50;16.70;;;1.95;;
572;SDS011;271;51.114;13.780;2023-04-03T07:42:39;17.92;;;2.30;;
572;SDS011;271;51.114;13.780;2023-04-03T07:45:27;21.10;;;2.25;;
572;SDS011;271;51.114;13.780;2023-04-03T07:48:16;18.02;;;2.10;;
572;SDS011;271;51.114;13.780;2023-04-03T07:51:05;16.58;;;1.90;;
572;SDS011;271;51.114;13.780;2023-04-03T07:53:53;17.20;;;2.00;;
572;SDS011;271;51.114;13.780;2023-04-03T07:56:41;21.80;;;2.05;;
572;SDS011;271;51.114;13.780;2023-04-03T07:59:31;16.58;;;1.90;;
572;SDS011;271;51.114;13.780;2023-04-03T08:02:18;18.40;;;1.83;;
572;SDS011;271;51.114;13.780;2023-04-03T08:05:06;16.98;;;1.90;;
572;SDS011;271;51.114;13.780;2023-04-03T08:07:54;18.42;;;2.47;;
572;SDS011;271;51.114;13.780;2023-04-03T08:10:42;19.88;;;2.10;;
572;SDS011;271;51.114;13.780;2023-04-03T08:13:30;16.90;;;2.00;;
572;SDS011;271;51.114;13.780;2023-04-03T08:16:20;18.30;;;2.13;;
572;SDS011;271;51.114;13.780;2023-04-03T08:19:11;17.58;;;1.88;;
572;SDS011;271;51.114;13.780;2023-04-03T08:22:01;17.23;;;2.13;;
572;SDS011;271;51.114;13.780;2023-04-03T08:24:49;17.33;;;2.22;;
572;SDS011;271;51.114;13.780;2023-04-03T08:27:37;18.20;;;2.20;;
572;SDS011;271;51.114;13.780;2023-04-03T08:30:25;20.35;;;2.15;;
572;SDS011;271;51.114;13.780;2023-04-03T08:33:14;15.90;;;1.58;;
572;SDS011;271;51.114;13.780;2023-04-03T08:36:02;18.52;;;2.08;;
572;SDS011;271;51.114;13.780;2023-04-03T08:38:51;17.08;;;1.92;;
572;SDS011;271;51.114;13.780;2023-04-03T08:41:40;17.30;;;2.00;;
572;SDS011;271;51.114;13.780;2023-04-03T08:44:31;17.63;;;2.22;;
572;SDS011;271;51.114;13.780;2023-04-03T08:47:28;22.40;;;2.60;;
572;SDS011;271;51.114;13.780;2023-04-03T08:50:24;17.35;;;1.90;;
572;SDS011;271;51.114;13.780;2023-04-03T08:53:16;19.85;;;2.28;;
572;SDS011;271;51.114;13.780;2023-04-03T08:56:08;18.38;;;2.03;;
572;SDS011;271;51.114;13.780;2023-04-03T08:58:58;17.45;;;2.25;;
572;SDS011;271;51.114;13.780;2023-04-03T09:01:51;17.35;;;2.05;;
572;SDS011;271;51.114;13.780;2023-04-03T09:04:40;19.83;;;1.92;;
572;SDS011;271;51.114;13.780;2023-04-03T09:07:33;19.08;;;1.92;;
572;SDS011;271;51.114;13.780;2023-04-03T09:10:27;17.50;;;1.60;;
572;SDS011;271;51.114;13.780;2023-04-03T09:13:21;16.42;;;1.65;;
572;SDS011;271;51.114;13.780;2023-04-03T09:16:20;17.25;;;1.88;;
572;SDS011;271;51.114;13.780;2023-04-03T09:19:15;17.27;;;1.90;;
572;SDS011;271;51.114;13.780;2023-04-03T09:22:11;16.95;;;2.45;;
572;SDS011;271;51.114;13.780;2023-04-03T09:25:08;16.83;;;1.70;;
572;SDS011;271;51.114;13.780;2023-04-03T09:28:00;16.65;;;1.95;;
572;SDS011;271;51.114;13.780;2023-04-03T09:30:48;16.17;;;1.50;;
572;SDS011;271;51.114;13.780;2023-04-03T09:33:36;17.38;;;1.48;;
572;SDS011;271;51.114;13.780;2023-04-03T09:36:37;17.52;;;1.63;;
572;SDS011;271;51.114;13.780;2023-04-03T09:39:29;18.25;;;1.50;;
572;SDS011;271;51.114;13.780;2023-04-03T09:42:19;18.05;;;1.67;;
572;SDS011;271;51.114;13.780;2023-04-03T09:45:19;15.80;;;1.63;;
572;SDS011;271;51.114;13.780;2023-04-03T09:48:14;16.00;;;1.27;;
572;SDS011;271;51.114;13.780;2023-04-03T09:51:03;17.80;;;1.60;;
572;SDS011;271;51.114;13.780;2023-04-03T09:53:51;15.20;;;1.20;;
572;SDS011;271;51.114;13.780;2023-04-03T09:56:39;17.27;;;1.30;;
572;SDS011;271;51.114;13.780;2023-04-03T09:59:28;17.25;;;1.48;;
572;SDS011;271;51.114;13.780;2023-04-03T10:02:22;19.08;;;1.55;;
572;SDS011;271;51.114;13.780;2023-04-03T10:05:33;16.40;;;2.33;;
572;SDS011;271;51.114;13.780;2023-04-03T10:08:23;16.35;;;1.42;;
572;SDS011;271;51.114;13.780;2023-04-03T10:11:15;16.70;;;1.40;;
572;SDS011;271;51.114;13.780;2023-04-03T10:14:04;15.80;;;1.13;;
572;SDS011;271;51.114;13.780;2023-04-03T10:17:09;15.88;;;1.42;;
572;SDS011;271;51.114;13.780;2023-04-03T10:20:07;18.63;;;1.50;;
572;SDS011;271;51.114;13.780;2023-04-03T10:23:14;15.93;;;1.70;;
572;SDS011;271;51.114;13.780;2023-04-03T10:26:08;15.55;;;1.30;;
572;SDS011;271;51.114;13.780;2023-04-03T10:29:06;17.95;;;1.50;;
572;SDS011;271;51.114;13.780;2023-04-03T10:31:59;15.57;;;1.30;;
572;SDS011;271;51.114;13.780;2023-04-03T10:35:01;16.58;;;1.35;;
572;SDS011;271;51.114;13.780;2023-04-03T10:38:01;15.60;;;1.40;;
572;SDS011;271;51.114;13.780;2023-04-03T10:40:57;15.10;;;1.25;;
572;SDS011;271;51.114;13.780;2023-04-03T10:43:50;17.42;;;1.45;;
572;SDS011;271;51.114;13.780;2023-04-03T10:46:47;14.60;;;1.10;;
572;SDS011;271;51.114;13.780;2023-04-03T10:49:41;15.40;;;1.05;;
572;SDS011;271;51.114;13.780;2023-04-03T10:52:41;15.45;;;1.15;;
572;SDS011;271;51.114;13.780;2023-04-03T10:55:35;13.95;;;0.95;;
572;SDS011;271;51.114;13.780;2023-04-03T10:58:29;15.77;;;1.27;;
572;SDS011;271;51.114;13.780;2023-04-03T11:01:19;16.88;;;1.90;;
572;SDS011;271;51.114;13.780;2023-04-03T11:04:12;15.80;;;1.20;;
572;SDS011;271;51.114;13.780;2023-04-03T11:07:04;14.63;;;1.00;;
572;SDS011;271;51.114;13.780;2023-04-03T11:09:59;16.58;;;1.20;;
572;SDS011;271;51.114;13.780;2023-04-03T11:12:51;16.38;;;1.42;;
572;SDS011;271;51.114;13.780;2023-04-03T11:15:43;16.38;;;1.45;;
572;SDS011;271;51.114;13.780;2023-04-03T11:18:33;15.23;;;1.08;;
572;SDS011;271;51.114;13.780;2023-04-03T11:21:27;15.60;;;1.15;;
572;SDS011;271;51.114;13.780;2023-04-03T11:24:20;14.45;;;1.05;;
572;SDS011;271;51.114;13.780;2023-04-03T11:27:14;15.20;;;1.35;;
572;SDS011;271;51.114;13.780;2023-04-03T11:30:09;15.82;;;1.30;;
572;SDS011;271;51.114;13.780;2023-04-03T11:33:11;15.27;;;1.45;;
572;SDS011;271;51.114;13.780;2023-04-03T11:36:07;14.75;;;1.30;;
572;SDS011;271;51.114;13.780;2023-04-03T11:38:59;14.40;;;1.20;;
572;SDS011;271;51.114;13.780;2023-04-03T11:41:54;17.23;;;1.30;;
572;SDS011;271;51.114;13.780;2023-04-03T11:44:44;15.73;;;1.20;;
572;SDS011;271;51.114;13.780;2023-04-03T11:47:45;16.52;;;1.50;;
572;SDS011;271;51.114;13.780;2023-04-03T11:50:41;16.85;;;1.30;;
572;SDS011;271;51.114;13.780;2023-04-03T11:53:34;16.20;;;1.20;;
572;SDS011;271;51.114;13.780;2023-04-03T11:56:29;14.30;;;1.02;;
572;SDS011;271;51.114;13.780;2023-04-03T11:59:23;14.93;;;1.48;;
572;SDS011;271;51.114;13.780;2023-04-03T12:05:24;17.05;;;1.70;;
572;SDS011;271;51.114;13.780;2023-04-03T12:08:23;19.02;;;1.50;;
572;SDS011;271;51.114;13.780;2023-04-03T12:11:19;15.20;;;1.65;;
572;SDS011;271;51.114;13.780;2023-04-03T12:14:13;15.32;;;1.73;;
572;SDS011;271;51.114;13.780;2023-04-03T12:17:02;14.40;;;1.20;;
572;SDS011;271;51.114;13.780;2023-04-03T12:19:51;15.20;;;1.13;;
572;SDS011;271;51.114;13.780;2023-04-03T12:22:39;16.83;;;1.80;;
572;SDS011;271;51.114;13.780;2023-04-03T12:26:21;15.10;;;1.63;;
572;SDS011;271;51.114;13.780;2023-04-03T12:29:14;14.00;;;1.10;;
572;SDS011;271;51.114;13.780;2023-04-03T12:32:09;17.02;;;1.55;;
572;SDS011;271;51.114;13.780;2023-04-03T12:35:05;15.00;;;1.55;;
572;SDS011;271;51.114;13.780;2023-04-03T12:41:21;15.45;;;2.10;;
572;SDS011;271;51.114;13.780;2023-04-03T12:44:23;15.77;;;1.35;;
572;SDS011;271;51.114;13.780;2023-04-03T12:47:25;14.90;;;1.50;;
572;SDS011;271;51.114;13.780;2023-04-03T12:50:18;14.80;;;1.38;;
572;SDS011;271;51.114;13.780;2023-04-03T12:53:11;18.10;;;1.55;;
572;SDS011;271;51.114;13.780;2023-04-03T12:56:20;14.80;;;1.48;;
572;SDS011;271;51.114;13.780;2023-04-03T12:59:14;14.80;;;1.40;;
572;SDS011;271;51.114;13.780;2023-04-03T13:02:07;14.85;;;1.45;;
572;SDS011;271;51.114;13.780;2023-04-03T13:05:07;14.70;;;1.40;;
572;SDS011;271;51.114;13.780;2023-04-03T13:07:58;17.30;;;1.90;;
572;SDS011;271;51.114;13.780;2023-04-03T13:10:53;15.75;;;1.70;;
572;SDS011;271;51.114;13.780;2023-04-03T13:13:54;15.68;;;1.55;;
572;SDS011;271;51.114;13.780;2023-04-03T13:16:52;14.75;;;1.38;;
572;SDS011;271;51.114;13.780;2023-04-03T13:19:41;15.15;;;1.40;;
572;SDS011;271;51.114;13.780;2023-04-03T13:22:32;14.50;;;1.50;;
572;SDS011;271;51.114;13.780;2023-04-03T13:25:25;15.20;;;1.52;;
572;SDS011;271;51.114;13.780;2023-04-03T13:28:17;15.10;;;2.10;;
572;SDS011;271;51.114;13.780;2023-04-03T13:31:14;16.42;;;1.77;;
572;SDS011;271;51.114;13.780;2023-04-03T13:34:06;15.00;;;1.55;;
572;SDS011;271;51.114;13.780;2023-04-03T13:36:59;14.80;;;1.65;;
572;SDS011;271;51.114;13.780;2023-04-03T13:39:56;14.65;;;1.42;;
572;SDS011;271;51.114;13.780;2023-04-03T13:42:46;15.10;;;1.88;;
572;SDS011;271;51.114;13.780;2023-04-03T13:45:56;15.98;;;1.58;;
572;SDS011;271;51.114;13.780;2023-04-03T13:48:55;14.50;;;1.30;;
572;SDS011;271;51.114;13.780;2023-04-03T13:51:44;17.95;;;1.40;;
572;SDS011;271;51.114;13.780;2023-04-03T13:54:33;15.00;;;1.25;;
572;SDS011;271;51.114;13.780;2023-04-03T13:57:24;15.45;;;1.48;;
572;SDS011;271;51.114;13.780;2023-04-03T14:00:19;14.82;;;1.30;;
572;SDS011;271;51.114;13.780;2023-04-03T14:03:16;20.55;;;1.42;;
572;SDS011;271;51.114;13.780;2023-04-03T14:06:09;17.70;;;1.95;;
572;SDS011;271;51.114;13.780;2023-04-03T14:08:59;15.10;;;1.70;;
572;SDS011;271;51.114;13.780;2023-04-03T14:11:47;15.30;;;1.40;;
572;SDS011;271;51.114;13.780;2023-04-03T14:14:37;15.18;;;1.38;;
572;SDS011;271;51.114;13.780;2023-04-03T14:17:26;16.27;;;1.75;;
572;SDS011;271;51.114;13.780;2023-04-03T14:20:15;16.30;;;1.30;;
572;SDS011;271;51.114;13.780;2023-04-03T14:23:05;14.80;;;1.38;;
572;SDS011;271;51.114;13.780;2023-04-03T14:25:53;17.13;;;1.80;;
572;SDS011;271;51.114;13.780;2023-04-03T14:28:41;15.65;;;1.35;;
572;SDS011;271;51.114;13.780;2023-04-03T14:31:29;16.38;;;1.23;;
572;SDS011;271;51.114;13.780;2023-04-03T14:34:17;15.60;;;1.63;;
572;SDS011;271;51.114;13.780;2023-04-03T14:37:05;16.38;;;1.58;;
572;SDS011;271;51.114;13.780;2023-04-03T14:39:59;20.35;;;1.33;;
572;SDS011;271;51.114;13.780;2023-04-03T14:42:49;17.23;;;1.58;;
572;SDS011;271;51.114;13.780;2023-04-03T14:45:37;16.95;;;1.70;;
572;SDS011;271;51.114;13.780;2023-04-03T14:48:26;15.30;;;1.50;;
572;SDS011;271;51.114;13.780;2023-04-03T14:51:15;14.70;;;1.23;;
572;SDS011;271;51.114;13.780;2023-04-03T14:54:03;15.95;;;1.80;;
572;SDS011;271;51.114;13.780;2023-04-03T14:56:54;14.73;;;1.30;;
572;SDS011;271;51.114;13.780;2023-04-03T14:59:43;15.77;;;1.67;;
572;SDS011;271;51.114;13.780;2023-04-03T15:02:33;15.30;;;1.50;;
572;SDS011;271;51.114;13.780;2023-04-03T15:05:21;15.00;;;1.52;;
572;SDS011;271;51.114;13.780;2023-04-03T15:08:13;15.35;;;1.40;;
572;SDS011;271;51.114;13.780;2023-04-03T15:11:05;15.02;;;1.17;;
572;SDS011;271;51.114;13.780;2023-04-03T15:13:55;17.05;;;1.40;;
572;SDS011;271;51.114;13.780;2023-04-03T15:16:43;15.10;;;1.35;;
572;SDS011;271;51.114;13.780;2023-04-03T15:19:31;15.38;;;1.48;;
572;SDS011;271;51.114;13.780;2023-04-03T15:22:24;15.32;;;1.25;;
572;SDS011;271;51.114;13.780;2023-04-03T15:25:11;18.20;;;1.40;;
572;SDS011;271;51.114;13.780;2023-04-03T15:27:59;15.30;;;1.52;;
572;SDS011;271;51.114;13.780;2023-04-03T15:30:48;14.55;;;1.50;;
572;SDS011;271;51.114;13.780;2023-04-03T15:33:37;16.25;;;1.33;;
572;SDS011;271;51.114;13.780;2023-04-03T15:36:24;16.45;;;1.45;;
572;SDS011;271;51.114;13.780;2023-04-03T15:39:12;14.90;;;1.35;;
572;SDS011;271;51.114;13.780;2023-04-03T15:42:00;16.30;;;1.38;;
572;SDS011;271;51.114;13.780;2023-04-03T15:44:51;15.43;;;1.33;;
572;SDS011;271;51.114;13.780;2023-04-03T15:47:41;14.88;;;1.40;;
572;SDS011;271;51.114;13.780;2023-04-03T15:50:29;16.85;;;1.30;;
572;SDS011;271;51.114;13.780;2023-04-03T15:53:16;16.05;;;1.60;;
572;SDS011;271;51.114;13.780;2023-04-03T15:56:04;16.05;;;1.30;;
572;SDS011;271;51.114;13.780;2023-04-03T15:58:53;16.52;;;1.50;;
572;SDS011;271;51.114;13.780;2023-04-03T16:01:41;17.08;;;1.63;;
572;SDS011;271;51.114;13.780;2023-04-03T16:04:31;17.05;;;1.45;;
572;SDS011;271;51.114;13.780;2023-04-03T16:07:20;14.70;;;1.33;;
572;SDS011;271;51.114;13.780;2023-04-03T16:10:08;15.05;;;1.38;;
572;SDS011;271;51.114;13.780;2023-04-03T16:12:57;16.40;;;1.48;;
572;SDS011;271;51.114;13.780;2023-04-03T16:15:44;15.52;;;1.20;;
572;SDS011;271;51.114;13.780;2023-04-03T16:18:34;15.77;;;1.45;;
572;SDS011;271;51.114;13.780;2023-04-03T16:21:24;14.65;;;1.17;;
572;SDS011;271;51.114;13.780;2023-04-03T16:24:12;14.43;;;1.23;;
572;SDS011;271;51.114;13.780;2023-04-03T16:27:00;14.70;;;1.30;;
572;SDS011;271;51.114;13.780;2023-04-03T16:29:47;14.35;;;1.00;;
572;SDS011;271;51.114;13.780;2023-04-03T16:32:35;15.75;;;2.00;;
572;SDS011;271;51.114;13.780;2023-04-03T16:35:26;15.60;;;1.50;;
572;SDS011;271;51.114;13.780;2023-04-03T16:38:16;14.98;;;1.50;;
572;SDS011;271;51.114;13.780;2023-04-03T16:41:04;15.30;;;1.75;;
572;SDS011;271;51.114;13.780;2023-04-03T16:43:52;15.68;;;1.65;;
572;SDS011;271;51.114;13.780;2023-04-03T16:46:40;17.10;;;1.48;;
572;SDS011;271;51.114;13.780;2023-04-03T16:49:28;15.25;;;1.17;;
572;SDS011;271;51.114;13.780;2023-04-03T16:52:21;14.70;;;1.20;;
572;SDS011;271;51.114;13.780;2023-04-03T16:55:10;15.35;;;1.58;;
572;SDS011;271;51.114;13.780;2023-04-03T16:57:58;17.88;;;2.10;;
572;SDS011;271;51.114;13.780;2023-04-03T17:00:46;15.52;;;2.08;;
572;SDS011;271;51.114;13.780;2023-04-03T17:03:34;16.25;;;1.88;;
572;SDS011;271;51.114;13.780;2023-04-03T17:06:25;19.50;;;1.85;;
572;SDS011;271;51.114;13.780;2023-04-03T17:09:13;16.55;;;2.33;;
572;SDS011;271;51.114;13.780;2023-04-03T17:12:03;18.63;;;3.05;;
572;SDS011;271;51.114;13.780;2023-04-03T17:14:53;16.65;;;2.80;;
572;SDS011;271;51.114;13.780;2023-04-03T17:17:41;18.63;;;3.45;;
572;SDS011;271;51.114;13.780;2023-04-03T17:20:32;16.80;;;3.45;;
572;SDS011;271;51.114;13.780;2023-04-03T17:23:21;17.90;;;2.25;;
572;SDS011;271;51.114;13.780;2023-04-03T17:26:10;17.05;;;1.90;;
572;SDS011;271;51.114;13.780;2023-04-03T17:28:59;17.02;;;2.33;;
572;SDS011;271;51.114;13.780;2023-04-03T17:31:47;15.38;;;1.80;;
572;SDS011;271;51.114;13.780;2023-04-03T17:34:35;14.35;;;1.40;;
572;SDS011;271;51.114;13.780;2023-04-03T17:37:22;15.40;;;1.45;;
572;SDS011;271;51.114;13.780;2023-04-03T17:40:10;17.38;;;1.58;;
572;SDS011;271;51.114;13.780;2023-04-03T17:42:59;15.27;;;1.40;;
572;SDS011;271;51.114;13.780;2023-04-03T17:45:48;14.65;;;1.50;;
572;SDS011;271;51.114;13.780;2023-04-03T17:48:37;14.85;;;1.50;;